首页
METAR-TAF:

METAR-TAF

机场 :

奥斯滕德, 比利时

纬度: 51-12N, 经度: 002-52E, 海拔: 4米

当前天气观测

该预报发布于27分钟前的08:20 UTC
风速5节,风向西南,在西之间变化
温度 19°C
湿度 52%
气压 1036 hPa
能见度10公里或以上
1500米以下无云,无积雨云

METAR: EBOS 260820Z 23005KT 170V260 CAVOK 19/09 Q1036 NOSIG

时间: 10:47 (08:47 UTC)

预报

该预报发布于3小时和27分钟前的05:20 UTC
预报有效从26日的 06点(UTC)到 27日的 12点(UTC)
风速3节,风向多变
能见度10公里或以上
1500米以下无云,无积雨云
几率 30% :
短暂存在
从 27日的 02点(UTC)到 27日的 05点(UTC)
能見度: 1200
轻雾, 浅雾
成为
从 27日的 10点(UTC)到 27日的 12点(UTC)
风速10节,风向北转东北

TAF: EBOS 260520Z 2606/2712 VRB03KT CAVOK PROB30 TEMPO 2702/2705 1200 BR MIFG BECMG 2710/2712 02010KT

超过4000个机场的气象观测和天气预报(METAR&TAF报告)。

可查询的气象台以黄色和红色小点在地图上表示。

将鼠标移到小点上方,可查看气象台名称。

然后点击查看天气观测和预报。

如需切换地图:点击带黑十字的绿色按钮放大地图;点击带横线的绿色按钮缩小地图;或者点击绿色箭头查看邻近地区的地图。


METAR-TAF: